Aérodrome :
LOGIN :

S'inscrire | Disclaimer

   EN    FR    IT 

 










Légende :    VFR   VFR Marginal   IFR   IFR Intensif   IFR Très Intensif
Visi : 
Plafond : 
>= 8 km
>= 3000ft
5 à 8 km
1000 à 3000 ft
1500m à 5 km
500 à 1000 ft
800 à 1500m
200 à 500 ft
< 800m
< 200 ft
Symboles :   Orages  Brouillard  Fortes neiges  Fortes précipitations  Vent > 20 kt
SIGMETs :   Divers  Orages  Givrage  Turbulence  Onde Orograph.  Cendres Volcan.






- Altitude de l'aérodrome : 392 ft
- Code IATA : CDG


LFPG - Paris-Aeroport Charles De Gaulle

DERNIER METAR :
  • 251600Z 32008KT 9999 FEW031 05/M02 Q1012 NOSIG

METARs EXPIRÉS :
  • 251530Z 33011KT 9999 FEW031 05/M02 Q1012 NOSIG
  • 251500Z 33009KT 9999 SCT026 05/M01 Q1011 NOSIG
  • 251430Z 34014KT 9999 SCT026 05/M01 Q1011 NOSIG
  • 251400Z 34011KT 9999 SCT023 05/M00 Q1010 NOSIG
  • 251330Z 34010KT 9999 BKN023 05/00 Q1010 NOSIG

TAF TAF LFPG
Valide du 25 à 12h jusqu'au 26 à 18h UTC


251100Z 2512/2618 34010KT 9999 SCT015 TX05/2515Z TNM02/2606Z
ATIS : +33 1 48 62 10 92



MET'MAP, la Météo Aéronautique d'un coup d'oeil ! - Copyright ORBIFLY Décembre 2007 - Disclaimer

ORBIFLY MET'MAP TEAM :

Programmation & Développement : Alexandra Zaïnal
Sur une idée originale de : Baudouin d'Aumeries
Assistance à la programmation : Marc-Olivier Méhu
Soutien technique & logistique : Manuel Goepfert

Contact : metmap@orbifly.com




SOURCES & CREDITS :

   NOAA